Decoded Metar for CYYL (LYNN LAKE in MB, CANADA) (IATA:YYL) | Meteo·Mobile Aviation Weather
aviador You're here:

CYYL Decoded Metar

LYNN LAKE in MB, CANADA
Report Time2018-10-19 20:18:00
UTC Time2018-10-19 20:27:20
Flight Rules vfr VFR
Wind320° at 20 Gusting to 30 kt
W.Decomp.*RWY 35: 15.8 kt HW 12.3 kt LCW
RWY 26: 12.3 kt HW 15.8 kt RCW
W.Rank320° ranks 3
Current wind is above 320° avg. (8.5)
Visibility9999 m
Phenomena:N/A
Clouds:Broken 035 Hf
Overcast 070 Hf
Expected CloudBase > 2,400 ft AGL from Temp-Dew spread
Ceiling3,500 ft
Temp-4°C (ISA -17)
Dew Point-10°C (63% RH)
AAT-14.3°C
QNH1016 hPa
Density Alt-938 ft
Elevation1,171 ft
Report Wrong Elevation
Raw Report
SPECI CYYL 192018Z AUTO 32020G30KT 9SM BKN035 OVC070 M04/M10 A3000
RMK SLP183=

Extra information for CYYL:More info

Metar Taf Metar & Taf Last 4 Metars F.Rules Stats Wind Profile Meteogram Temp Stats Airport Information Weather charts Add Link Nearby VenuesMetar ALERT Operation Metar Decoded Social comments